Time;durP1;ratioP1;P1;durP2;ratioP2;P2;SDS_P1;SDS_P2;PMS_P1;PMS_P2;Temp;Humidity;BMP_temperature;BMP_pressure;BME280_temperature;BME280_humidity;BME280_pressure;Samples;Min_cycle;Max_cycle;Signal;HPM_P1;HPM_P2
2023/02/04 00:00:04;;;;;;;2.93;2.53;;;4.40;99.90;;;;;;5058428;28;20640;-50
2023/02/04 00:02:31;;;;;;;3.50;3.20;;;4.40;99.90;;;;;;5064117;28;20352;-50
2023/02/04 00:04:58;;;;;;;2.53;2.37;;;4.40;99.90;;;;;;5058359;28;20647;-51
2023/02/04 00:07:27;;;;;;;2.47;2.27;;;4.40;99.90;;;;;;5044023;28;20208;-50
2023/02/04 00:09:54;;;;;;;2.43;2.23;;;4.40;99.90;;;;;;5056157;28;20908;-49
2023/02/04 00:12:25;;;;;;;2.90;1.73;;;4.40;99.90;;;;;;5052071;28;20684;-51
2023/02/04 00:14:52;;;;;;;2.00;1.90;;;4.40;99.90;;;;;;5044708;28;20306;-53
2023/02/04 00:17:19;;;;;;;6.00;2.40;;;4.40;99.90;;;;;;5042029;28;20200;-50
2023/02/04 00:19:46;;;;;;;2.03;1.93;;;4.40;99.90;;;;;;5040342;28;20235;-52
2023/02/04 00:22:13;;;;;;;2.13;2.03;;;4.40;99.90;;;;;;5042848;28;21195;-50
2023/02/04 00:24:41;;;;;;;3.07;2.87;;;4.30;99.90;;;;;;5040248;28;20265;-49
2023/02/04 00:27:09;;;;;;;2.73;2.23;;;4.40;99.90;;;;;;5050810;28;20639;-51
2023/02/04 00:29:37;;;;;;;2.73;2.53;;;4.40;99.90;;;;;;5058253;28;20280;-50
2023/02/04 00:32:04;;;;;;;2.40;2.30;;;4.40;99.90;;;;;;5048449;28;20202;-49
2023/02/04 00:34:31;;;;;;;1.93;1.80;;;4.40;99.90;;;;;;5047012;28;20272;-51
2023/02/04 00:36:58;;;;;;;2.33;2.23;;;4.30;99.90;;;;;;5042364;28;20201;-50
2023/02/04 00:39:25;;;;;;;2.67;2.40;;;4.30;99.90;;;;;;5042669;28;20204;-50
2023/02/04 00:41:52;;;;;;;2.70;2.53;;;4.30;99.90;;;;;;5055281;28;20206;-49
2023/02/04 00:44:19;;;;;;;3.50;3.20;;;4.30;99.90;;;;;;5037039;28;20219;-51
2023/02/04 00:46:48;;;;;;;3.13;2.93;;;4.40;99.90;;;;;;5038233;28;20216;-50
2023/02/04 00:49:15;;;;;;;3.47;2.63;;;4.40;99.90;;;;;;5043969;28;20295;-51
2023/02/04 00:51:45;;;;;;;2.40;2.20;;;4.40;99.90;;;;;;5044114;28;20266;-50
2023/02/04 00:54:14;;;;;;;2.70;2.60;;;4.40;99.90;;;;;;5053869;28;20697;-50
2023/02/04 00:56:41;;;;;;;2.20;2.10;;;4.40;99.90;;;;;;5050736;28;20207;-51
2023/02/04 00:59:08;;;;;;;2.60;1.90;;;4.40;99.90;;;;;;5056996;28;20197;-50
2023/02/04 01:01:35;;;;;;;1.20;1.20;;;4.40;99.90;;;;;;5050143;28;20609;-51
2023/02/04 01:04:04;;;;;;;1.40;1.40;;;4.40;99.90;;;;;;5037447;28;20363;-50
2023/02/04 01:06:32;;;;;;;2.10;1.87;;;4.30;99.90;;;;;;5039687;28;20215;-51
2023/02/04 01:09:00;;;;;;;3.00;2.13;;;4.40;99.90;;;;;;5062782;28;20250;-50
2023/02/04 01:11:27;;;;;;;2.37;2.27;;;4.40;99.90;;;;;;5050401;28;20625;-50
2023/02/04 01:13:54;;;;;;;1.50;1.50;;;4.40;99.90;;;;;;5050267;28;20605;-50
2023/02/04 01:16:22;;;;;;;1.87;1.43;;;4.40;99.90;;;;;;5057971;28;20561;-51
2023/02/04 01:18:49;;;;;;;1.77;1.67;;;4.30;99.90;;;;;;5040265;28;20203;-49
2023/02/04 01:21:17;;;;;;;1.43;1.43;;;4.30;99.90;;;;;;5051581;28;20235;-50
2023/02/04 01:23:44;;;;;;;1.67;1.57;;;4.40;99.90;;;;;;5042304;28;20678;-50
2023/02/04 01:26:11;;;;;;;1.33;1.33;;;4.40;99.90;;;;;;5049302;28;20751;-51
2023/02/04 01:28:39;;;;;;;2.53;2.33;;;4.40;99.90;;;;;;5035602;28;20212;-50
2023/02/04 01:31:06;;;;;;;1.90;1.80;;;4.30;99.90;;;;;;5054604;28;20670;-50
2023/02/04 01:33:33;;;;;;;1.97;1.87;;;4.30;99.90;;;;;;5038290;28;20274;-49
2023/02/04 01:35:59;;;;;;;3.37;3.17;;;4.30;99.90;;;;;;5047273;28;20205;-51
2023/02/04 01:38:28;;;;;;;1.83;1.70;;;4.30;99.90;;;;;;5030542;28;20696;-49
2023/02/04 01:40:55;;;;;;;2.27;2.17;;;4.40;99.90;;;;;;5051672;28;20226;-50
2023/02/04 01:43:23;;;;;;;1.98;1.88;;;4.40;99.90;;;;;;5046445;28;20536;-50
2023/02/04 01:45:51;;;;;;;2.00;1.90;;;4.50;99.90;;;;;;5049209;28;20481;-51
2023/02/04 01:48:21;;;;;;;1.50;1.50;;;4.40;99.90;;;;;;5036461;28;20216;-50
2023/02/04 01:50:49;;;;;;;1.73;1.63;;;4.40;99.90;;;;;;5040202;28;20276;-51
2023/02/04 01:53:20;;;;;;;1.57;1.57;;;4.30;99.90;;;;;;5048162;28;20199;-50
2023/02/04 01:55:49;;;;;;;1.50;1.40;;;4.40;99.90;;;;;;5055490;28;20202;-50
2023/02/04 01:58:16;;;;;;;1.10;1.10;;;4.40;99.90;;;;;;5046357;28;20273;-50
2023/02/04 02:00:43;;;;;;;1.20;1.20;;;4.40;99.90;;;;;;5044837;28;20602;-51
2023/02/04 02:03:11;;;;;;;2.27;1.80;;;4.40;99.90;;;;;;5038817;28;20865;-50
2023/02/04 02:05:41;;;;;;;1.47;1.37;;;4.40;99.90;;;;;;5039892;28;20349;-50
2023/02/04 02:08:09;;;;;;;1.40;1.40;;;4.40;99.90;;;;;;5052783;28;20724;-50
2023/02/04 02:10:38;;;;;;;1.20;1.20;;;4.40;99.90;;;;;;5053809;28;20306;-51
2023/02/04 02:13:10;;;;;;;0.83;0.80;;;4.40;99.90;;;;;;5054773;28;20281;-49
2023/02/04 02:15:37;;;;;;;1.37;1.37;;;4.40;99.90;;;;;;5060160;28;20332;-50
2023/02/04 02:18:04;;;;;;;2.37;1.33;;;4.50;99.90;;;;;;5052905;28;20200;-50
2023/02/04 02:20:31;;;;;;;1.00;1.00;;;4.40;99.90;;;;;;5048307;28;22286;-52
2023/02/04 02:23:04;;;;;;;3.80;1.40;;;4.40;99.90;;;;;;5057623;28;20207;-49
2023/02/04 02:25:33;;;;;;;1.60;1.50;;;4.40;99.90;;;;;;5062298;28;20203;-51
2023/02/04 02:28:01;;;;;;;0.80;0.80;;;4.40;99.90;;;;;;5045773;28;21995;-50
2023/02/04 02:30:29;;;;;;;0.97;0.97;;;4.40;99.90;;;;;;5041615;28;20216;-50
2023/02/04 02:32:57;;;;;;;1.27;0.77;;;4.50;99.90;;;;;;5055175;28;20292;-50
2023/02/04 02:35:24;;;;;;;0.70;0.70;;;4.40;99.90;;;;;;5053015;28;20285;-51
2023/02/04 02:37:51;;;;;;;0.80;0.80;;;4.40;99.90;;;;;;5050224;28;20215;-50
2023/02/04 02:40:19;;;;;;;1.17;1.07;;;4.50;99.90;;;;;;5061489;28;20223;-50
2023/02/04 02:42:51;;;;;;;2.37;1.20;;;4.40;99.90;;;;;;5042574;28;20218;-51
2023/02/04 02:45:23;;;;;;;1.00;1.00;;;4.40;99.90;;;;;;5050580;28;20217;-50
2023/02/04 02:47:50;;;;;;;1.43;1.10;;;4.40;99.90;;;;;;5041910;28;20203;-50
2023/02/04 02:50:21;;;;;;;0.80;0.80;;;4.40;99.90;;;;;;5042563;28;20284;-51
2023/02/04 02:52:48;;;;;;;0.80;0.80;;;4.40;99.90;;;;;;5052151;28;20207;-50
2023/02/04 02:55:18;;;;;;;1.53;1.43;;;4.40;99.90;;;;;;5061048;28;20254;-50
2023/02/04 02:57:48;;;;;;;1.10;1.00;;;4.40;99.90;;;;;;5071821;28;20693;-50
2023/02/04 03:00:16;;;;;;;0.60;0.60;;;4.40;99.90;;;;;;5064943;28;20218;-50
2023/02/04 03:02:45;;;;;;;0.80;0.80;;;4.40;99.90;;;;;;5056951;28;20209;-50
2023/02/04 03:05:13;;;;;;;1.43;1.37;;;4.40;99.90;;;;;;5059135;28;20225;-50
2023/02/04 03:07:40;;;;;;;1.43;1.33;;;4.30;99.90;;;;;;5073345;28;20294;-50
2023/02/04 03:10:07;;;;;;;1.47;1.37;;;4.40;99.90;;;;;;5065896;28;20277;-51
2023/02/04 03:12:35;;;;;;;1.20;1.20;;;4.30;99.90;;;;;;5070312;28;20202;-50
2023/02/04 03:15:04;;;;;;;1.10;1.10;;;4.30;99.90;;;;;;5073276;28;20256;-51
2023/02/04 03:17:33;;;;;;;3.50;1.50;;;4.30;99.90;;;;;;5050783;28;20211;-53
2023/02/04 03:20:00;;;;;;;1.63;1.30;;;4.30;99.90;;;;;;5056457;28;20340;-50
2023/02/04 03:22:27;;;;;;;2.20;2.10;;;4.30;99.90;;;;;;5052201;28;20246;-50
2023/02/04 03:24:57;;;;;;;1.90;1.80;;;4.20;99.90;;;;;;5053223;28;20301;-50
2023/02/04 03:27:29;;;;;;;1.87;1.77;;;4.20;99.90;;;;;;5053046;28;20208;-51
2023/02/04 03:29:55;;;;;;;1.13;1.13;;;4.30;99.90;;;;;;5056435;28;20223;-52
2023/02/04 03:32:26;;;;;;;1.60;1.60;;;4.20;99.90;;;;;;5048163;28;20702;-51
2023/02/04 03:34:53;;;;;;;1.87;1.77;;;4.20;99.90;;;;;;5063927;28;20509;-50
2023/02/04 03:37:20;;;;;;;2.07;1.97;;;4.20;99.90;;;;;;5062638;28;20208;-51
2023/02/04 03:39:47;;;;;;;1.73;1.63;;;4.20;99.90;;;;;;5061443;28;20224;-50
2023/02/04 03:42:14;;;;;;;1.40;1.30;;;4.30;99.90;;;;;;5064222;28;20229;-51
2023/02/04 03:44:41;;;;;;;1.80;1.80;;;4.20;99.90;;;;;;5057939;28;20219;-50
2023/02/04 03:47:08;;;;;;;2.77;2.57;;;4.30;99.90;;;;;;5057130;28;20204;-50
2023/02/04 03:49:37;;;;;;;2.20;2.10;;;4.30;99.90;;;;;;5050545;28;20227;-49
2023/02/04 03:52:04;;;;;;;2.03;2.00;;;4.20;99.90;;;;;;5057766;28;20218;-49
2023/02/04 03:54:31;;;;;;;1.37;1.37;;;4.20;99.90;;;;;;5066340;28;20203;-51
2023/02/04 03:56:58;;;;;;;1.23;1.13;;;4.20;99.90;;;;;;5061372;28;20602;-50
2023/02/04 03:59:25;;;;;;;1.33;1.33;;;4.20;99.90;;;;;;5059688;28;20204;-50
2023/02/04 04:01:52;;;;;;;1.67;1.57;;;4.30;99.90;;;;;;5050950;28;20269;-51
2023/02/04 04:04:19;;;;;;;2.03;1.90;;;4.20;99.90;;;;;;5060699;28;20212;-49
2023/02/04 04:06:48;;;;;;;1.80;1.70;;;4.20;99.90;;;;;;5071225;28;20252;-51
2023/02/04 04:09:15;;;;;;;2.13;2.03;;;4.20;99.90;;;;;;5059846;28;20681;-51
2023/02/04 04:11:42;;;;;;;2.10;2.00;;;4.20;99.90;;;;;;5060113;28;20200;-50
2023/02/04 04:14:09;;;;;;;2.00;1.90;;;4.30;99.90;;;;;;5060001;28;20256;-50
2023/02/04 04:16:36;;;;;;;1.47;1.37;;;4.30;99.90;;;;;;5049702;28;20673;-50
2023/02/04 04:19:03;;;;;;;1.60;1.60;;;4.20;99.90;;;;;;5048964;28;20211;-51
2023/02/04 04:21:30;;;;;;;1.30;1.30;;;4.20;99.90;;;;;;5067309;22;20247;-47
2023/02/04 04:23:58;;;;;;;1.50;1.40;;;4.20;99.90;;;;;;5024898;28;20224;-47
2023/02/04 04:26:25;;;;;;;0.93;0.93;;;4.20;99.90;;;;;;5027710;28;20275;-47
2023/02/04 04:28:52;;;;;;;2.00;1.90;;;4.30;99.90;;;;;;5037702;28;20254;-47
2023/02/04 04:31:19;;;;;;;1.43;1.33;;;4.30;99.90;;;;;;5038787;28;20718;-48
2023/02/04 04:33:46;;;;;;;1.40;1.40;;;4.30;99.90;;;;;;5022529;28;20209;-47
2023/02/04 04:36:13;;;;;;;1.40;1.40;;;4.40;99.90;;;;;;5038058;28;20242;-47
2023/02/04 04:38:40;;;;;;;1.20;1.20;;;4.30;99.90;;;;;;5051042;28;20298;-48
2023/02/04 04:41:09;;;;;;;2.57;1.57;;;4.30;99.90;;;;;;5033677;28;20228;-47
2023/02/04 04:43:36;;;;;;;1.23;1.23;;;4.20;99.90;;;;;;5036091;28;20258;-48
2023/02/04 04:46:03;;;;;;;1.50;1.40;;;4.30;99.90;;;;;;5043940;28;20433;-48
2023/02/04 04:48:30;;;;;;;1.70;1.30;;;4.30;99.90;;;;;;5028136;28;20270;-48
2023/02/04 04:50:57;;;;;;;0.97;0.97;;;4.30;99.90;;;;;;5037484;28;20250;-47
2023/02/04 04:53:24;;;;;;;1.47;1.47;;;4.30;99.90;;;;;;5047405;28;20283;-47
2023/02/04 04:55:51;;;;;;;1.50;1.50;;;4.20;99.90;;;;;;5051904;28;20246;-48
2023/02/04 04:58:20;;;;;;;1.87;1.77;;;4.30;99.90;;;;;;5014493;28;20211;-47
2023/02/04 05:00:47;;;;;;;2.30;1.43;;;4.30;99.90;;;;;;5040965;28;20222;-48
2023/02/04 05:03:14;;;;;;;3.00;1.27;;;4.30;99.90;;;;;;5032582;28;20204;-47
2023/02/04 05:05:41;;;;;;;1.10;1.10;;;4.20;99.90;;;;;;5033710;28;20219;-47
2023/02/04 05:08:11;;;;;;;1.60;1.60;;;4.30;99.90;;;;;;5031631;28;20202;-47
2023/02/04 05:10:39;;;;;;;1.50;1.43;;;4.30;99.90;;;;;;5039333;28;20230;-47
2023/02/04 05:13:06;;;;;;;1.60;1.50;;;4.30;99.90;;;;;;5033332;28;20200;-47
2023/02/04 05:15:35;;;;;;;1.27;1.17;;;4.20;99.90;;;;;;5035083;28;20257;-48
2023/02/04 05:18:02;;;;;;;1.77;1.77;;;4.20;99.90;;;;;;5038650;28;20597;-48
2023/02/04 05:20:29;;;;;;;1.70;1.60;;;4.20;99.90;;;;;;5038238;28;20734;-47
2023/02/04 05:22:59;;;;;;;1.97;1.87;;;4.20;99.90;;;;;;5035178;28;20202;-47
2023/02/04 05:25:26;;;;;;;2.10;2.00;;;4.10;99.90;;;;;;5051298;28;20270;-46
2023/02/04 05:27:53;;;;;;;1.73;1.63;;;4.00;99.90;;;;;;5051325;28;20268;-46
2023/02/04 05:30:21;;;;;;;2.10;2.00;;;4.10;99.90;;;;;;5027549;28;20228;-47
2023/02/04 05:32:49;;;;;;;2.10;2.00;;;4.20;99.90;;;;;;5031116;28;20249;-47
2023/02/04 05:35:17;;;;;;;1.73;1.63;;;4.20;99.90;;;;;;5031627;28;20574;-46
2023/02/04 05:37:44;;;;;;;3.17;2.93;;;4.20;99.90;;;;;;5031302;28;20675;-47
2023/02/04 05:40:12;;;;;;;3.10;2.90;;;4.20;99.90;;;;;;5035210;28;20268;-47
2023/02/04 05:42:39;;;;;;;4.00;3.33;;;4.20;99.90;;;;;;5042747;28;20195;-47
2023/02/04 05:45:06;;;;;;;3.43;2.83;;;4.10;99.90;;;;;;5042014;28;20222;-47
2023/02/04 05:47:33;;;;;;;3.07;2.83;;;4.20;99.90;;;;;;5038552;28;20267;-48
2023/02/04 05:50:01;;;;;;;2.80;2.60;;;4.10;99.90;;;;;;5037634;28;20745;-46
2023/02/04 05:52:29;;;;;;;2.47;2.27;;;4.20;99.90;;;;;;5039101;28;20199;-47
2023/02/04 05:54:56;;;;;;;2.00;1.80;;;4.10;99.90;;;;;;5031332;28;20199;-48
2023/02/04 05:57:26;;;;;;;3.93;2.10;;;4.10;99.90;;;;;;5035037;28;20196;-46
2023/02/04 05:59:53;;;;;;;2.53;2.43;;;4.10;99.90;;;;;;5037806;28;20215;-46
2023/02/04 06:02:20;;;;;;;2.90;2.70;;;4.10;99.90;;;;;;5026610;28;20701;-48
2023/02/04 06:04:47;;;;;;;2.50;2.40;;;4.10;99.90;;;;;;5036767;28;20225;-47
2023/02/04 06:07:16;;;;;;;2.87;2.67;;;4.20;99.90;;;;;;5021722;28;20807;-48
2023/02/04 06:09:43;;;;;;;2.60;2.47;;;4.20;99.90;;;;;;5030617;28;20667;-47
2023/02/04 06:12:10;;;;;;;2.97;2.77;;;4.30;99.90;;;;;;5042349;28;20194;-47
2023/02/04 06:14:37;;;;;;;2.83;2.70;;;4.30;99.90;;;;;;5038090;28;20216;-47
2023/02/04 06:17:04;;;;;;;3.03;2.83;;;4.40;99.90;;;;;;5035646;28;20604;-48
2023/02/04 06:19:31;;;;;;;3.00;2.90;;;4.30;99.90;;;;;;5037743;28;20627;-46
2023/02/04 06:21:59;;;;;;;2.67;2.47;;;4.30;99.90;;;;;;5020805;28;20228;-47
2023/02/04 06:24:27;;;;;;;2.10;2.00;;;4.30;99.90;;;;;;5029040;28;20228;-47
2023/02/04 06:26:55;;;;;;;2.33;2.13;;;4.30;99.90;;;;;;5044213;28;20253;-46
2023/02/04 06:29:23;;;;;;;2.10;2.00;;;4.20;99.90;;;;;;5033535;28;20240;-47
2023/02/04 06:31:50;;;;;;;2.23;2.10;;;4.20;99.90;;;;;;5029566;28;20224;-47
2023/02/04 06:34:17;;;;;;;2.00;2.00;;;4.20;99.90;;;;;;5045509;28;20197;-47
2023/02/04 06:36:44;;;;;;;2.60;2.40;;;4.20;99.90;;;;;;5028614;28;20243;-47
2023/02/04 06:39:12;;;;;;;1.90;1.80;;;4.20;99.90;;;;;;5018758;28;20205;-47
2023/02/04 06:41:40;;;;;;;3.43;3.23;;;4.30;99.90;;;;;;5043619;28;20286;-47
2023/02/04 06:44:08;;;;;;;3.33;3.13;;;4.30;99.90;;;;;;5039699;28;20203;-48
2023/02/04 06:46:35;;;;;;;3.47;3.17;;;4.30;99.90;;;;;;5031966;28;20596;-47
2023/02/04 06:49:02;;;;;;;2.70;2.60;;;4.30;99.90;;;;;;5034177;28;20256;-47
2023/02/04 06:51:29;;;;;;;4.67;4.30;;;4.30;99.90;;;;;;5040330;28;20228;-47
2023/02/04 06:53:58;;;;;;;4.67;4.00;;;4.30;99.90;;;;;;5039616;28;20272;-48
2023/02/04 06:56:25;;;;;;;3.70;3.40;;;4.30;99.90;;;;;;5041698;28;20194;-47
2023/02/04 06:58:54;;;;;;;4.23;4.03;;;4.30;99.90;;;;;;5036787;28;20201;-47
2023/02/04 07:01:21;;;;;;;5.00;4.60;;;4.40;99.90;;;;;;5038291;28;20290;-47
2023/02/04 07:03:48;;;;;;;6.30;5.80;;;4.40;99.90;;;;;;5052184;28;20207;-47
2023/02/04 07:06:15;;;;;;;9.77;7.70;;;4.40;99.90;;;;;;5024236;28;20220;-47
2023/02/04 07:08:42;;;;;;;9.63;7.90;;;4.40;99.90;;;;;;5029917;28;20250;-47
2023/02/04 07:11:09;;;;;;;4.80;4.40;;;4.40;99.90;;;;;;5035929;28;20976;-47
2023/02/04 07:13:36;;;;;;;3.53;3.33;;;4.30;99.90;;;;;;5028973;28;20208;-47
2023/02/04 07:16:06;;;;;;;3.93;3.33;;;4.30;99.90;;;;;;5037822;28;20662;-48
2023/02/04 07:18:33;;;;;;;5.63;5.23;;;4.40;99.90;;;;;;5017551;28;20206;-46
2023/02/04 07:21:00;;;;;;;5.63;5.20;;;4.50;99.90;;;;;;5026467;28;20608;-48
2023/02/04 07:23:27;;;;;;;5.00;4.70;;;4.50;99.90;;;;;;5018757;28;20282;-47
2023/02/04 07:25:56;;;;;;;5.13;4.83;;;4.40;99.90;;;;;;5023140;28;20306;-47
2023/02/04 07:28:23;;;;;;;5.23;4.90;;;4.40;99.90;;;;;;5030027;28;20580;-48
2023/02/04 07:30:50;;;;;;;4.63;4.33;;;4.40;99.90;;;;;;5046429;28;20244;-47
2023/02/04 07:33:19;;;;;;;5.10;4.60;;;4.40;99.90;;;;;;5047346;28;20258;-49
2023/02/04 07:35:46;;;;;;;5.80;5.10;;;4.40;99.90;;;;;;5042912;28;20197;-48
2023/02/04 07:38:13;;;;;;;5.47;5.07;;;4.40;99.90;;;;;;5053130;28;20200;-47
2023/02/04 07:40:40;;;;;;;6.93;6.33;;;4.40;99.90;;;;;;5042941;28;20223;-47
2023/02/04 07:43:07;;;;;;;7.27;6.57;;;4.50;99.90;;;;;;5053331;28;20209;-47
2023/02/04 07:45:34;;;;;;;9.93;8.83;;;4.50;99.90;;;;;;5028886;28;20217;-47
2023/02/04 07:48:01;;;;;;;11.40;9.50;;;4.50;99.90;;;;;;5032231;28;20217;-48
2023/02/04 07:50:29;;;;;;;10.10;8.93;;;4.40;99.90;;;;;;5035584;28;20224;-47
2023/02/04 07:52:56;;;;;;;9.67;8.67;;;4.40;99.90;;;;;;5028197;28;20264;-46
2023/02/04 07:55:23;;;;;;;9.00;8.17;;;4.50;99.90;;;;;;5030483;28;20221;-46
2023/02/04 07:57:50;;;;;;;8.13;7.43;;;4.50;99.90;;;;;;5018143;28;20651;-47
2023/02/04 08:00:17;;;;;;;9.60;8.63;;;4.50;99.90;;;;;;5035463;28;20215;-48
2023/02/04 08:02:44;;;;;;;8.60;7.80;;;4.50;99.90;;;;;;5029100;28;20270;-47
2023/02/04 08:05:12;;;;;;;9.67;8.77;;;4.50;99.90;;;;;;5019510;28;20220;-46
2023/02/04 08:07:40;;;;;;;9.20;8.40;;;4.40;99.90;;;;;;5024887;28;20204;-47
2023/02/04 08:10:09;;;;;;;10.23;8.33;;;4.50;99.90;;;;;;5027872;28;20282;-47
2023/02/04 08:12:37;;;;;;;9.10;8.30;;;4.40;99.90;;;;;;5024502;28;20204;-47
2023/02/04 08:15:05;;;;;;;9.47;8.57;;;4.50;99.90;;;;;;5044234;28;20195;-48
2023/02/04 08:17:32;;;;;;;11.07;9.97;;;4.50;99.90;;;;;;5052637;28;20207;-47
2023/02/04 08:19:59;;;;;;;12.20;10.90;;;4.50;99.90;;;;;;5052364;28;20735;-47
2023/02/04 08:22:29;;;;;;;9.50;8.67;;;4.50;99.90;;;;;;5015007;28;20201;-47
2023/02/04 08:24:58;;;;;;;9.50;8.70;;;4.60;99.90;;;;;;5033193;28;20264;-48
2023/02/04 08:27:27;;;;;;;10.47;9.37;;;4.60;99.90;;;;;;5034425;28;20195;-48
2023/02/04 08:29:55;;;;;;;8.97;8.07;;;4.60;99.90;;;;;;5047351;28;20342;-47
2023/02/04 08:32:28;;;;;;;12.53;9.80;;;4.60;99.90;;;;;;5036994;28;20195;-46
2023/02/04 08:34:55;;;;;;;10.27;9.37;;;4.60;99.90;;;;;;5024734;28;20204;-47
2023/02/04 08:37:22;;;;;;;10.47;9.47;;;4.70;99.90;;;;;;5029892;28;20574;-47
2023/02/04 08:39:49;;;;;;;11.00;9.50;;;4.70;99.90;;;;;;5025162;28;20204;-48
2023/02/04 08:42:17;;;;;;;9.13;8.20;;;4.70;99.90;;;;;;5046581;28;20203;-47
2023/02/04 08:44:44;;;;;;;11.17;10.07;;;4.70;99.90;;;;;;5034944;28;20204;-47
2023/02/04 08:47:11;;;;;;;10.20;9.20;;;4.80;99.90;;;;;;5020446;28;20598;-48
2023/02/04 08:49:38;;;;;;;16.43;12.73;;;4.80;99.90;;;;;;5016297;28;20579;-48
2023/02/04 08:52:06;;;;;;;15.50;11.03;;;4.80;99.90;;;;;;5017062;28;20260;-47
2023/02/04 08:54:34;;;;;;;13.97;10.33;;;4.90;99.90;;;;;;5031858;28;20209;-49
2023/02/04 08:57:01;;;;;;;20.87;13.03;;;5.00;99.90;;;;;;5028991;28;20198;-48
2023/02/04 08:59:31;;;;;;;14.27;10.30;;;5.00;99.90;;;;;;5031170;28;20633;-48
2023/02/04 09:01:58;;;;;;;13.03;9.97;;;5.10;99.90;;;;;;5039473;28;20249;-47
2023/02/04 09:04:27;;;;;;;10.90;9.80;;;5.10;99.90;;;;;;5035624;28;20243;-47
2023/02/04 09:06:54;;;;;;;11.67;10.47;;;5.10;99.90;;;;;;5017343;28;20223;-47
2023/02/04 09:09:21;;;;;;;11.60;10.40;;;5.10;99.90;;;;;;5019380;28;20228;-47
2023/02/04 09:11:49;;;;;;;13.07;9.57;;;5.20;99.90;;;;;;5030400;28;20273;-47
2023/02/04 09:14:17;;;;;;;9.33;8.43;;;5.30;99.90;;;;;;5038079;28;20230;-47
2023/02/04 09:16:47;;;;;;;8.23;7.43;;;5.30;99.90;;;;;;5051734;28;20201;-47
2023/02/04 09:19:15;;;;;;;8.40;7.37;;;5.40;99.90;;;;;;5027269;28;20251;-47
2023/02/04 09:21:42;;;;;;;7.97;7.20;;;5.40;99.90;;;;;;5016978;28;20322;-47
2023/02/04 09:24:09;;;;;;;7.20;6.50;;;5.60;99.90;;;;;;5032161;28;20457;-48
2023/02/04 09:26:36;;;;;;;6.20;5.70;;;5.70;99.90;;;;;;5038052;28;20482;-47
2023/02/04 09:29:03;;;;;;;6.50;6.00;;;5.70;99.90;;;;;;5029810;28;20200;-47
2023/02/04 09:31:30;;;;;;;5.00;4.60;;;5.70;99.90;;;;;;5042401;28;20243;-48
2023/02/04 09:34:00;;;;;;;4.33;4.03;;;5.70;99.90;;;;;;5034281;28;20205;-47
2023/02/04 09:36:29;;;;;;;5.27;4.77;;;5.80;99.90;;;;;;5024165;28;20202;-47
2023/02/04 09:38:56;;;;;;;6.40;5.10;;;5.80;99.90;;;;;;5038519;28;20200;-48
2023/02/04 09:41:23;;;;;;;5.07;4.67;;;5.90;99.90;;;;;;5038994;28;20271;-48
2023/02/04 09:43:50;;;;;;;2.67;2.47;;;5.90;99.90;;;;;;5030111;28;20642;-47
2023/02/04 09:46:20;;;;;;;3.30;2.80;;;5.90;99.90;;;;;;5021379;28;20222;-47
2023/02/04 09:48:48;;;;;;;1.13;0.90;;;6.10;99.90;;;;;;5022908;28;20219;-47
2023/02/04 09:51:21;;;;;;;1.00;1.00;;;6.20;99.90;;;;;;5024534;28;20302;-48
2023/02/04 09:53:52;;;;;;;0.97;0.90;;;6.20;99.90;;;;;;5022734;28;21188;-47
2023/02/04 09:56:20;;;;;;;1.13;0.40;;;6.30;99.90;;;;;;5026714;28;20198;-47
2023/02/04 09:58:47;;;;;;;0.50;0.50;;;6.50;99.90;;;;;;5030372;28;20204;-47
2023/02/04 10:01:17;;;;;;;0.80;0.80;;;6.70;99.90;;;;;;5042373;28;20636;-47
2023/02/04 10:03:46;;;;;;;0.50;0.50;;;6.90;99.90;;;;;;5030659;28;20208;-48
2023/02/04 10:06:15;;;;;;;0.53;0.50;;;7.10;99.90;;;;;;5037010;28;20217;-48
2023/02/04 10:08:45;;;;;;;2.40;1.07;;;7.10;99.90;;;;;;5030120;28;20631;-47
2023/02/04 10:11:13;;;;;;;1.47;1.03;;;7.20;99.90;;;;;;5025050;28;20701;-47
2023/02/04 10:13:44;;;;;;;3.13;1.57;;;7.30;99.90;;;;;;5025747;28;20420;-47
2023/02/04 10:16:14;;;;;;;1.43;0.80;;;7.40;99.90;;;;;;5036845;28;20207;-47
2023/02/04 10:18:45;;;;;;;0.77;0.77;;;7.60;99.90;;;;;;5030718;28;20246;-47
2023/02/04 10:21:17;;;;;;;1.57;0.60;;;7.60;99.90;;;;;;5024590;28;20744;-48
2023/02/04 10:23:49;;;;;;;0.83;0.70;;;7.60;99.90;;;;;;5042303;28;20231;-48
2023/02/04 10:26:17;;;;;;;0.60;0.60;;;7.40;99.90;;;;;;5051787;28;20254;-48
2023/02/04 10:28:44;;;;;;;1.40;1.23;;;7.50;99.90;;;;;;5042809;28;20272;-48
2023/02/04 10:31:34;;;;;;;2.93;0.70;;;7.50;99.90;;;;;;5032563;28;20223;-48
2023/02/04 10:34:06;;;;;;;2.37;0.90;;;7.40;99.90;;;;;;5031734;28;20199;-47
2023/02/04 10:36:33;;;;;;;0.90;0.57;;;7.50;99.90;;;;;;5034414;28;20225;-48
2023/02/04 10:39:04;;;;;;;0.90;0.47;;;7.40;99.90;;;;;;5044558;28;20208;-49
2023/02/04 10:41:32;;;;;;;1.07;0.40;;;7.40;99.90;;;;;;5017610;28;20354;-47
2023/02/04 10:44:07;;;;;;;0.73;0.70;;;7.40;99.90;;;;;;5026540;28;20295;-47
2023/02/04 10:46:34;;;;;;;1.57;1.33;;;7.50;99.90;;;;;;5029913;28;20787;-47
2023/02/04 10:49:04;;;;;;;1.00;1.00;;;7.50;99.90;;;;;;5030890;28;20690;-48
2023/02/04 10:51:31;;;;;;;2.17;1.30;;;7.50;99.90;;;;;;5043491;28;20227;-48
2023/02/04 10:56:44;;;;;;;1.77;0.70;;;7.50;99.90;;;;;;5031415;28;20207;-47
2023/02/04 10:59:25;;;;;;;1.33;0.60;;;7.40;99.90;;;;;;5022657;28;20582;-47
2023/02/04 11:01:52;;;;;;;0.67;0.50;;;7.40;99.90;;;;;;5026125;28;20226;-48
2023/02/04 11:04:19;;;;;;;0.87;0.60;;;7.40;99.90;;;;;;5027566;28;20205;-47
2023/02/04 11:06:46;;;;;;;0.70;0.57;;;7.50;99.90;;;;;;5042310;28;20216;-47
2023/02/04 11:09:14;;;;;;;0.77;0.50;;;7.80;99.90;;;;;;5050367;28;20199;-47
2023/02/04 11:11:47;;;;;;;0.60;0.60;;;7.90;99.90;;;;;;5054793;28;20225;-46
2023/02/04 11:14:27;;;;;;;2.33;0.70;;;8.10;99.90;;;;;;5027080;28;20200;-47
2023/02/04 11:16:59;;;;;;;1.27;0.90;;;8.10;99.90;;;;;;5036715;28;20305;-47
2023/02/04 11:19:34;;;;;;;2.20;0.40;;;8.10;99.90;;;;;;5033250;28;20229;-49
2023/02/04 11:22:24;;;;;;;0.70;0.60;;;8.00;99.90;;;;;;5027981;28;20205;-47
2023/02/04 11:24:52;;;;;;;1.13;1.03;;;8.00;99.90;;;;;;5018195;28;20228;-48
2023/02/04 11:27:29;;;;;;;4.43;0.80;;;8.00;99.90;;;;;;5044625;28;20268;-46
2023/02/04 11:30:05;;;;;;;1.93;0.60;;;8.00;99.90;;;;;;5039481;28;20223;-47
2023/02/04 11:32:36;;;;;;;3.03;0.83;;;8.10;99.90;;;;;;5042512;28;20295;-47
2023/02/04 11:35:21;;;;;;;2.57;0.60;;;8.10;99.90;;;;;;5032268;28;20194;-46
2023/02/04 11:37:49;;;;;;;2.30;0.77;;;8.20;99.90;;;;;;5031599;28;20569;-46
2023/02/04 11:40:28;;;;;;;2.40;0.80;;;8.20;99.90;;;;;;5032795;28;20215;-47
2023/02/04 11:43:02;;;;;;;2.33;0.67;;;8.30;99.90;;;;;;5009554;28;20922;-46
2023/02/04 11:45:32;;;;;;;5.57;0.70;;;8.40;99.90;;;;;;5041849;28;20287;-48
2023/02/04 11:48:02;;;;;;;1.00;0.70;;;8.10;99.90;;;;;;5014818;28;20288;-47
2023/02/04 11:50:31;;;;;;;2.40;0.60;;;8.10;99.90;;;;;;5031135;28;20216;-47
2023/02/04 11:53:00;;;;;;;3.17;0.50;;;8.10;99.90;;;;;;5025613;28;20742;-46
2023/02/04 11:55:28;;;;;;;1.53;0.40;;;8.10;99.90;;;;;;5029487;28;20205;-47
2023/02/04 11:57:56;;;;;;;1.57;0.90;;;8.20;99.90;;;;;;5030018;28;20192;-46
2023/02/04 12:00:27;;;;;;;1.10;0.70;;;8.40;99.90;;;;;;5021561;28;20815;-47
2023/02/04 12:02:59;;;;;;;2.20;0.63;;;8.60;99.90;;;;;;5028925;28;20645;-47
2023/02/04 12:05:38;;;;;;;1.83;0.87;;;8.70;99.90;;;;;;5030355;28;20193;-46
2023/02/04 12:08:26;;;;;;;1.70;1.07;;;8.60;99.90;;;;;;5017363;28;20734;-47
2023/02/04 12:11:01;;;;;;;0.90;0.70;;;8.40;99.90;;;;;;5026520;28;20223;-47
2023/02/04 12:13:29;;;;;;;2.37;0.60;;;8.60;99.90;;;;;;5043839;28;20199;-48
2023/02/04 12:16:01;;;;;;;0.40;0.40;;;8.60;99.90;;;;;;5053057;28;20207;-47
2023/02/04 12:18:29;;;;;;;1.77;0.50;;;8.50;99.90;;;;;;5029309;28;20205;-46
2023/02/04 12:20:56;;;;;;;3.60;0.93;;;8.60;99.90;;;;;;5045012;28;20236;-47
2023/02/04 12:23:24;;;;;;;2.67;1.10;;;8.60;99.90;;;;;;5029590;28;20208;-46
2023/02/04 12:25:51;;;;;;;3.37;0.80;;;8.70;99.90;;;;;;5036432;28;20215;-46
2023/02/04 12:28:20;;;;;;;0.53;0.53;;;8.80;99.90;;;;;;5031442;28;20216;-47
2023/02/04 12:30:48;;;;;;;2.73;0.80;;;8.80;99.90;;;;;;5015635;28;20237;-47
2023/02/04 12:33:17;;;;;;;4.57;0.60;;;8.90;99.90;;;;;;5035272;28;20682;-46
2023/02/04 12:35:44;;;;;;;1.07;0.87;;;8.90;99.90;;;;;;5031434;28;20203;-48
2023/02/04 12:38:12;;;;;;;4.07;0.57;;;8.80;99.90;;;;;;5033347;28;20588;-48
2023/02/04 12:40:39;;;;;;;0.50;0.30;;;8.80;99.90;;;;;;5029553;28;20295;-48
2023/02/04 12:43:06;;;;;;;0.87;0.33;;;8.90;99.90;;;;;;5051029;28;20198;-47
2023/02/04 12:45:33;;;;;;;2.00;0.63;;;9.00;99.90;;;;;;5036520;28;20210;-47
2023/02/04 12:48:00;;;;;;;3.73;0.83;;;9.10;99.90;;;;;;5032239;28;20280;-47
2023/02/04 12:50:28;;;;;;;1.60;0.80;;;9.20;99.90;;;;;;5031950;28;20226;-46
2023/02/04 12:52:58;;;;;;;2.07;0.70;;;9.10;99.90;;;;;;5024582;28;20209;-47
2023/02/04 12:55:27;;;;;;;2.00;0.70;;;9.10;99.90;;;;;;5018352;28;20203;-46
2023/02/04 12:57:55;;;;;;;2.17;1.93;;;9.10;99.90;;;;;;5033097;28;20200;-47
2023/02/04 13:00:22;;;;;;;3.23;0.90;;;8.90;99.90;;;;;;5043243;28;20221;-47
2023/02/04 13:02:49;;;;;;;2.17;0.93;;;8.60;99.90;;;;;;5039530;28;20261;-46